Sfax, Tunisia
Current Conditions -  °F | °C
As of 10:00 PM on Friday 28 Nov 2014 (Local Time) from DTTX Reporting Station
Few Clouds Few Clouds  
Wind Chill: 66°   Ceiling: Unl
Heat Index: 66°   Visibility: 6mi
Dew Point: 59°   Wind: 2mph
Humidity: 78%   Direction: NA
Pressure: 29.8"   Gusts: NA
Location:  34.75°N, 10.76°E
Report Text: DTTX 282100Z VRB02KT 9999 FEW033 19/15 Q1009 NOSIG
Loading
Personal Weather Stations






























Interactive Weather Map New forecast layout! Learn more

10-Day Weather Forecast

Advertisements
Track Severe Weather on mobile